Time;durP1;ratioP1;P1;durP2;ratioP2;P2;SDS_P1;SDS_P2;PMS_P1;PMS_P2;Temp;Humidity;BMP_temperature;BMP_pressure;BME280_temperature;BME280_humidity;BME280_pressure;Samples;Min_cycle;Max_cycle;Signal;HPM_P1;HPM_P2
2023/04/23 00:02:10;;;;;;;82.23;42.07;;;10.20;99.90;;;;;;5033542;28;20021;-46
2023/04/23 00:04:37;;;;;;;82.40;42.10;;;10.20;99.90;;;;;;5033253;28;20029;-46
2023/04/23 00:07:03;;;;;;;85.23;43.17;;;10.20;99.90;;;;;;5033066;28;20044;-45
2023/04/23 00:09:33;;;;;;;85.27;43.03;;;10.20;99.90;;;;;;5032984;28;20037;-49
2023/04/23 00:12:00;;;;;;;85.80;42.40;;;10.20;99.90;;;;;;5033315;28;20749;-46
2023/04/23 00:14:26;;;;;;;81.60;40.77;;;10.20;99.90;;;;;;5033023;28;20029;-45
2023/04/23 00:16:53;;;;;;;82.63;41.30;;;10.20;99.90;;;;;;5033220;28;20034;-46
2023/04/23 00:19:19;;;;;;;77.90;40.67;;;10.10;99.90;;;;;;5033170;28;20471;-44
2023/04/23 00:21:45;;;;;;;82.73;41.03;;;10.10;99.90;;;;;;5033038;28;20029;-45
2023/04/23 00:24:11;;;;;;;82.63;40.63;;;10.00;99.90;;;;;;5032963;28;20096;-50
2023/04/23 00:26:36;;;;;;;82.33;41.07;;;10.10;99.90;;;;;;5032850;28;20025;-47
2023/04/23 00:29:02;;;;;;;78.37;41.07;;;10.00;99.90;;;;;;5032878;28;20397;-49
2023/04/23 00:31:28;;;;;;;82.87;40.80;;;10.10;99.90;;;;;;5033012;28;20029;-49
2023/04/23 00:33:54;;;;;;;84.53;42.03;;;10.10;99.90;;;;;;5032803;28;20034;-49
2023/04/23 00:36:20;;;;;;;84.53;43.33;;;10.10;99.90;;;;;;5032493;28;20037;-48
2023/04/23 00:38:46;;;;;;;85.07;42.47;;;10.10;99.90;;;;;;5032844;28;20072;-47
2023/04/23 00:41:13;;;;;;;84.83;42.70;;;10.10;99.90;;;;;;5032811;28;20532;-47
2023/04/23 00:43:39;;;;;;;84.30;41.13;;;10.10;99.90;;;;;;5032367;28;20123;-51
2023/04/23 00:46:05;;;;;;;85.53;41.27;;;10.00;99.90;;;;;;5032515;28;20029;-50
2023/04/23 00:48:33;;;;;;;87.30;42.93;;;10.00;99.90;;;;;;5014437;28;20029;-49
2023/04/23 00:51:02;;;;;;;81.37;40.00;;;10.00;99.90;;;;;;5014631;28;20033;-46
2023/04/23 00:53:27;;;;;;;80.95;41.25;;;10.00;99.90;;;;;;5032347;28;20470;-47
2023/04/23 00:55:53;;;;;;;76.10;38.93;;;10.00;99.90;;;;;;5014680;28;20033;-47
2023/04/23 00:58:20;;;;;;;81.80;40.23;;;10.00;99.90;;;;;;5014484;28;20037;-46
2023/04/23 01:00:47;;;;;;;77.93;39.43;;;10.10;99.90;;;;;;5032373;28;20112;-46
2023/04/23 01:03:17;;;;;;;70.50;36.43;;;10.00;99.90;;;;;;5032297;28;20413;-50
2023/04/23 01:05:43;;;;;;;76.35;38.10;;;10.10;99.90;;;;;;5014586;28;20025;-49
2023/04/23 01:08:14;;;;;;;71.73;36.87;;;10.00;99.90;;;;;;5032127;28;20030;-50
2023/04/23 01:10:44;;;;;;;66.10;35.73;;;10.00;99.90;;;;;;5032097;28;20056;-49
2023/04/23 01:13:14;;;;;;;64.33;33.37;;;10.00;99.90;;;;;;5032072;28;20056;-47
2023/04/23 01:15:39;;;;;;;;;;;10.00;99.90;;;;;;5032392;28;20040;-49
2023/04/23 01:18:08;;;;;;;61.83;33.47;;;10.00;99.90;;;;;;5013920;28;20020;-47
2023/04/23 01:20:35;;;;;;;60.67;32.13;;;10.00;99.90;;;;;;5031063;28;20029;-48
2023/04/23 01:23:04;;;;;;;61.90;32.40;;;10.00;99.90;;;;;;5031733;28;20072;-48
2023/04/23 01:25:30;;;;;;;61.85;32.97;;;9.90;99.90;;;;;;5031721;28;20040;-48
2023/04/23 01:27:57;;;;;;;62.73;32.50;;;9.90;99.90;;;;;;5013502;28;20049;-48
2023/04/23 01:30:25;;;;;;;64.57;33.13;;;9.90;99.90;;;;;;5031419;28;20041;-49
2023/04/23 01:32:54;;;;;;;57.60;31.92;;;9.80;99.90;;;;;;5013746;28;20470;-48
2023/04/23 01:35:20;;;;;;;59.15;31.73;;;9.80;99.90;;;;;;5031432;28;20112;-47
2023/04/23 01:37:47;;;;;;;64.73;31.83;;;9.70;99.90;;;;;;5044244;22;20601;-55
2023/04/23 01:40:12;;;;;;;59.33;32.30;;;9.70;99.90;;;;;;5031293;28;20026;-55
2023/04/23 01:42:39;;;;;;;60.40;31.23;;;9.60;99.90;;;;;;5029857;28;20025;-54
2023/04/23 01:45:06;;;;;;;58.93;32.17;;;9.70;99.90;;;;;;5031021;28;20021;-54
2023/04/23 01:47:36;;;;;;;60.83;30.87;;;9.60;99.90;;;;;;5013295;28;20087;-55
2023/04/23 01:50:03;;;;;;;59.50;32.05;;;9.60;99.90;;;;;;5031156;28;20037;-54
2023/04/23 01:52:29;;;;;;;63.37;33.23;;;9.50;99.90;;;;;;5031201;28;20037;-54
2023/04/23 01:54:55;;;;;;;62.83;31.87;;;9.50;99.90;;;;;;5030887;28;20056;-54
2023/04/23 01:57:25;;;;;;;59.63;30.40;;;9.50;99.90;;;;;;5012863;28;20032;-55
2023/04/23 01:59:56;;;;;;;58.83;31.50;;;9.50;99.90;;;;;;5013196;28;20029;-54
2023/04/23 02:02:24;;;;;;;56.80;31.07;;;9.40;99.90;;;;;;5031348;28;20037;-53
2023/04/23 02:04:52;;;;;;;56.73;30.77;;;9.50;99.90;;;;;;5012971;28;20124;-51
2023/04/23 02:07:17;;;;;;;57.43;31.93;;;9.40;99.90;;;;;;5013146;28;20064;-55
2023/04/23 02:09:43;;;;;;;54.03;29.70;;;9.40;99.90;;;;;;5030704;28;20033;-52
2023/04/23 02:12:09;;;;;;;56.03;30.93;;;9.40;99.90;;;;;;5013001;28;20410;-52
2023/04/23 02:14:34;;;;;;;59.70;32.10;;;9.40;99.90;;;;;;5012798;28;20029;-55
2023/04/23 02:17:01;;;;;;;56.70;31.10;;;9.30;99.90;;;;;;5012616;28;20437;-54
2023/04/23 02:19:29;;;;;;;57.23;30.50;;;9.30;99.90;;;;;;5013027;28;20495;-53
2023/04/23 02:21:55;;;;;;;59.53;31.03;;;9.30;99.90;;;;;;5030649;28;20065;-55
2023/04/23 02:24:21;;;;;;;56.30;30.87;;;9.30;99.90;;;;;;5030474;28;20362;-55
2023/04/23 02:26:47;;;;;;;58.63;31.40;;;9.20;99.90;;;;;;5012494;28;20039;-54
2023/04/23 02:29:13;;;;;;;57.10;31.30;;;9.20;99.90;;;;;;5012830;28;20040;-53
2023/04/23 02:31:39;;;;;;;62.27;31.97;;;9.20;99.90;;;;;;5012694;28;20029;-54
2023/04/23 02:34:05;;;;;;;56.87;30.47;;;9.20;99.90;;;;;;4996503;28;20123;-54
2023/04/23 02:36:31;;;;;;;59.20;31.80;;;9.10;99.90;;;;;;5030157;28;20057;-50
2023/04/23 02:38:57;;;;;;;58.27;31.33;;;9.10;99.90;;;;;;5012637;28;20038;-55
2023/04/23 02:41:22;;;;;;;54.70;29.20;;;9.10;99.90;;;;;;5012773;28;20047;-55
2023/04/23 02:43:48;;;;;;;59.80;32.17;;;9.10;99.90;;;;;;5030240;28;20025;-53
2023/04/23 02:46:14;;;;;;;57.37;31.27;;;9.10;99.90;;;;;;5030374;28;20068;-54
2023/04/23 02:48:40;;;;;;;56.23;31.57;;;9.10;99.90;;;;;;5030610;28;20034;-55
2023/04/23 02:51:08;;;;;;;55.93;31.83;;;9.00;99.90;;;;;;5030366;28;20033;-52
2023/04/23 02:53:34;;;;;;;58.07;31.70;;;9.00;99.90;;;;;;5030119;28;20018;-54
2023/04/23 02:56:00;;;;;;;57.53;30.70;;;9.10;99.90;;;;;;5012609;28;20493;-51
2023/04/23 02:58:26;;;;;;;54.30;29.43;;;9.10;99.90;;;;;;5012407;28;20029;-51
2023/04/23 03:00:54;;;;;;;52.63;29.23;;;9.10;99.90;;;;;;5012632;28;20490;-55
2023/04/23 03:03:20;;;;;;;53.70;30.57;;;9.10;99.90;;;;;;5012495;28;20032;-53
2023/04/23 03:05:46;;;;;;;53.67;29.17;;;9.10;99.90;;;;;;5012410;28;20017;-53
2023/04/23 03:08:12;;;;;;;53.00;28.43;;;9.10;99.90;;;;;;5012097;28;20030;-53
2023/04/23 03:10:37;;;;;;;54.87;30.07;;;9.10;99.90;;;;;;5012282;28;20490;-54
2023/04/23 03:13:03;;;;;;;56.27;30.90;;;9.10;99.90;;;;;;5012417;28;20061;-53
2023/04/23 03:15:29;;;;;;;56.50;31.37;;;9.10;99.90;;;;;;5012202;28;20088;-52
2023/04/23 03:17:55;;;;;;;52.60;29.43;;;9.10;99.90;;;;;;5012038;28;20056;-54
2023/04/23 03:20:21;;;;;;;53.10;30.63;;;9.20;99.90;;;;;;5030119;28;20065;-53
2023/04/23 03:22:47;;;;;;;54.20;30.10;;;9.20;99.90;;;;;;5012193;28;20045;-54
2023/04/23 03:25:13;;;;;;;52.50;30.13;;;9.20;99.90;;;;;;5012204;28;20033;-54
2023/04/23 03:27:39;;;;;;;56.00;30.80;;;9.20;99.90;;;;;;5029711;28;20028;-54
2023/04/23 03:30:07;;;;;;;51.47;29.27;;;9.20;99.90;;;;;;5012172;28;20505;-52
2023/04/23 03:32:34;;;;;;;56.57;30.97;;;9.20;99.90;;;;;;5012196;28;20057;-54
2023/04/23 03:35:00;;;;;;;51.43;28.40;;;9.20;99.90;;;;;;5012063;28;20490;-55
2023/04/23 03:37:27;;;;;;;55.40;29.47;;;9.20;99.90;;;;;;5011822;28;20160;-55
2023/04/23 03:39:53;;;;;;;54.63;30.23;;;9.20;99.90;;;;;;5012067;28;20034;-52
2023/04/23 03:42:19;;;;;;;56.40;31.87;;;9.10;99.90;;;;;;5012192;28;20033;-54
2023/04/23 03:44:45;;;;;;;54.10;30.70;;;9.10;99.90;;;;;;5013734;28;20546;-52
2023/04/23 03:47:10;;;;;;;53.37;29.27;;;9.10;99.90;;;;;;5015487;28;20506;-54
2023/04/23 03:49:37;;;;;;;50.90;28.30;;;9.10;99.90;;;;;;5015532;28;20025;-55
2023/04/23 03:52:03;;;;;;;57.47;30.57;;;9.10;99.90;;;;;;5015374;28;20034;-55
2023/04/23 03:54:30;;;;;;;52.77;30.43;;;9.10;99.90;;;;;;5015342;28;20521;-51
2023/04/23 03:57:03;;;;;;;54.07;29.97;;;9.10;99.90;;;;;;5015105;28;20033;-53
2023/04/23 03:59:34;;;;;;;54.93;30.27;;;9.10;99.90;;;;;;5015497;28;20033;-55
2023/04/23 04:02:03;;;;;;;52.17;28.83;;;9.10;99.90;;;;;;5015459;28;20120;-52
2023/04/23 04:04:29;;;;;;;53.40;28.87;;;9.10;99.90;;;;;;5032915;28;20269;-53
2023/04/23 04:06:55;;;;;;;51.23;29.83;;;9.10;99.90;;;;;;5032839;28;20039;-51
2023/04/23 04:09:26;;;;;;;55.00;31.37;;;9.10;99.90;;;;;;5015157;28;20421;-54
2023/04/23 04:11:55;;;;;;;57.40;30.83;;;9.10;99.90;;;;;;5015076;28;20037;-53
2023/04/23 04:14:21;;;;;;;55.95;29.92;;;9.00;99.90;;;;;;5032726;28;20025;-52
2023/04/23 04:16:47;;;;;;;57.27;31.20;;;9.00;99.90;;;;;;5032462;28;20038;-56
2023/04/23 04:19:13;;;;;;;58.30;30.70;;;9.10;99.90;;;;;;5032833;28;20068;-56
2023/04/23 04:21:39;;;;;;;55.47;30.83;;;9.10;99.90;;;;;;5032847;28;20049;-55
2023/04/23 04:24:05;;;;;;;57.50;32.63;;;9.10;99.90;;;;;;5032556;28;20060;-54
2023/04/23 04:26:31;;;;;;;59.20;31.47;;;9.10;99.90;;;;;;5032541;28;20029;-56
2023/04/23 04:28:58;;;;;;;54.93;30.73;;;9.10;99.90;;;;;;5032678;28;20037;-56
2023/04/23 04:31:27;;;;;;;57.70;33.03;;;9.10;99.90;;;;;;5032998;28;20485;-55
2023/04/23 04:33:56;;;;;;;57.63;31.67;;;9.00;99.90;;;;;;5032283;28;20026;-57
2023/04/23 04:36:24;;;;;;;55.70;30.77;;;9.00;99.90;;;;;;5032069;28;20175;-54
2023/04/23 04:38:50;;;;;;;57.50;31.87;;;9.00;99.90;;;;;;5032520;28;20195;-55
2023/04/23 04:41:18;;;;;;;57.77;32.20;;;9.10;99.90;;;;;;5032384;28;20493;-56
2023/04/23 04:43:45;;;;;;;53.10;30.60;;;9.20;99.90;;;;;;5032192;28;20417;-55
2023/04/23 04:46:11;;;;;;;52.20;30.07;;;9.20;99.90;;;;;;5032257;28;20033;-53
2023/04/23 04:48:37;;;;;;;52.70;29.87;;;9.30;99.90;;;;;;5032292;28;20033;-56
2023/04/23 04:51:03;;;;;;;52.80;30.77;;;9.30;99.90;;;;;;5032266;28;20056;-55
2023/04/23 04:53:29;;;;;;;51.47;30.10;;;9.30;99.90;;;;;;5031941;28;20029;-53
2023/04/23 04:55:55;;;;;;;50.63;29.10;;;9.30;99.90;;;;;;5032090;28;20029;-53
2023/04/23 04:58:21;;;;;;;48.87;28.87;;;9.40;99.90;;;;;;5031779;28;20033;-55
2023/04/23 05:00:50;;;;;;;51.53;29.67;;;9.40;99.90;;;;;;5031991;28;20029;-54
2023/04/23 05:03:17;;;;;;;48.80;29.80;;;9.50;99.90;;;;;;5032017;28;20421;-53
2023/04/23 05:05:44;;;;;;;47.53;28.60;;;9.60;99.90;;;;;;5032024;28;20036;-54
2023/04/23 05:08:10;;;;;;;49.00;27.87;;;9.60;99.90;;;;;;5031556;28;20501;-54
2023/04/23 05:10:36;;;;;;;45.47;27.77;;;9.70;99.90;;;;;;5031859;28;20033;-53
2023/04/23 05:13:02;;;;;;;47.17;27.47;;;9.80;99.90;;;;;;5031800;28;20174;-54
2023/04/23 05:15:27;;;;;;;45.17;26.10;;;10.00;99.90;;;;;;5031496;28;20053;-55
2023/04/23 05:17:53;;;;;;;40.23;23.57;;;10.20;99.90;;;;;;5031314;28;20038;-56
2023/04/23 05:20:19;;;;;;;40.53;25.77;;;10.30;99.90;;;;;;5031734;28;20112;-55
2023/04/23 05:22:46;;;;;;;37.83;24.30;;;10.40;99.90;;;;;;5031659;28;20037;-55
2023/04/23 05:25:12;;;;;;;40.27;23.83;;;10.50;99.90;;;;;;5031349;28;20083;-55
2023/04/23 05:27:38;;;;;;;37.67;23.97;;;10.60;99.90;;;;;;5031321;28;20037;-52
2023/04/23 05:30:07;;;;;;;38.87;24.77;;;10.70;99.90;;;;;;5031389;28;20041;-53
2023/04/23 05:32:33;;;;;;;37.20;23.90;;;10.60;99.90;;;;;;5031472;28;20616;-56
2023/04/23 05:35:01;;;;;;;36.60;23.20;;;10.70;99.90;;;;;;5031280;28;20112;-56
2023/04/23 05:37:28;;;;;;;34.60;21.95;;;10.70;99.90;;;;;;5030923;28;20033;-56
2023/04/23 05:39:54;;;;;;;31.50;20.63;;;10.70;99.90;;;;;;5031295;28;20065;-55
2023/04/23 05:42:20;;;;;;;31.53;20.40;;;10.80;99.90;;;;;;5031197;28;20105;-55
2023/04/23 05:44:46;;;;;;;29.87;20.63;;;10.90;99.90;;;;;;5030994;28;20112;-55
2023/04/23 05:47:13;;;;;;;30.60;19.80;;;10.90;99.90;;;;;;5030884;28;20037;-53
2023/04/23 05:49:39;;;;;;;28.17;19.27;;;10.90;99.90;;;;;;5031295;28;20112;-55
2023/04/23 05:52:05;;;;;;;28.47;18.93;;;10.90;99.90;;;;;;5031091;28;20029;-54
2023/04/23 05:54:31;;;;;;;32.10;20.03;;;11.00;99.90;;;;;;5030772;28;20156;-54
2023/04/23 05:56:57;;;;;;;29.57;19.60;;;11.00;99.90;;;;;;5030573;28;20036;-53
2023/04/23 05:59:23;;;;;;;30.43;20.13;;;11.00;99.90;;;;;;5031154;28;20079;-54
2023/04/23 06:01:49;;;;;;;28.63;18.77;;;10.90;99.90;;;;;;5031245;28;20037;-54
2023/04/23 06:04:15;;;;;;;27.60;19.10;;;11.00;99.90;;;;;;5030719;28;20061;-54
2023/04/23 06:06:44;;;;;;;35.00;22.37;;;10.90;99.90;;;;;;5030147;28;20466;-55
2023/04/23 06:09:10;;;;;;;32.60;21.75;;;10.90;99.90;;;;;;5030750;28;20425;-52
2023/04/23 06:11:35;;;;;;;29.37;20.37;;;10.90;99.90;;;;;;5030706;28;20029;-57
2023/04/23 06:14:02;;;;;;;28.93;20.17;;;10.90;99.90;;;;;;5030613;28;20394;-54
2023/04/23 06:16:28;;;;;;;30.73;20.03;;;11.00;99.90;;;;;;5030445;28;20033;-54
2023/04/23 06:18:55;;;;;;;30.17;19.67;;;11.00;99.90;;;;;;5030705;28;20033;-56
2023/04/23 06:21:23;;;;;;;33.53;20.20;;;11.10;99.90;;;;;;5030622;28;20068;-56
2023/04/23 06:23:49;;;;;;;28.50;19.15;;;11.10;99.90;;;;;;5030562;28;20121;-55
2023/04/23 06:26:16;;;;;;;24.03;17.03;;;11.20;99.90;;;;;;5030942;28;20029;-54
2023/04/23 06:28:44;;;;;;;26.83;17.40;;;11.30;99.90;;;;;;5030740;28;20034;-54
2023/04/23 06:31:29;;;;;;;23.50;16.60;;;11.40;99.90;;;;;;5012952;28;20028;-54
2023/04/23 06:33:54;;;;;;;25.37;17.03;;;11.40;99.90;;;;;;5030511;28;20025;-55
2023/04/23 06:36:20;;;;;;;23.97;15.63;;;11.50;99.90;;;;;;5029938;28;20490;-55
2023/04/23 06:38:46;;;;;;;24.70;16.50;;;11.50;99.90;;;;;;5030374;28;20053;-53
2023/04/23 06:41:12;;;;;;;23.33;15.83;;;11.60;99.90;;;;;;5030617;28;20026;-55
2023/04/23 06:43:38;;;;;;;23.77;17.07;;;11.60;99.90;;;;;;5030263;28;20029;-55
2023/04/23 06:46:22;;;;;;;22.83;15.67;;;11.70;99.90;;;;;;5030452;28;20040;-55
2023/04/23 06:48:48;;;;;;;22.77;15.77;;;11.80;99.90;;;;;;5030340;28;20045;-56
2023/04/23 06:51:14;;;;;;;23.10;15.85;;;11.80;99.90;;;;;;5030173;28;20033;-53
2023/04/23 06:53:40;;;;;;;20.97;15.03;;;11.90;99.90;;;;;;5030359;28;20057;-55
2023/04/23 06:56:06;;;;;;;18.30;13.52;;;11.90;99.90;;;;;;5030283;28;20060;-54
2023/04/23 06:58:32;;;;;;;20.48;13.98;;;12.00;99.90;;;;;;5030029;28;20133;-56
2023/04/23 07:01:00;;;;;;;18.95;13.48;;;12.20;99.90;;;;;;5012521;28;20103;-53
2023/04/23 07:03:30;;;;;;;21.83;14.55;;;12.40;99.90;;;;;;5012279;28;20125;-56
2023/04/23 07:05:56;;;;;;;21.63;13.45;;;12.60;99.90;;;;;;5030152;28;20041;-54
2023/04/23 07:08:22;;;;;;;17.73;12.23;;;12.90;99.90;;;;;;5029949;28;20025;-53
2023/04/23 07:10:48;;;;;;;17.42;12.20;;;13.10;99.90;;;;;;5030401;28;20387;-52
2023/04/23 07:13:15;;;;;;;17.42;11.95;;;13.30;99.90;;;;;;5030207;28;20040;-56
2023/04/23 07:15:41;;;;;;;17.45;12.52;;;13.60;99.90;;;;;;5030103;28;20037;-55
2023/04/23 07:18:07;;;;;;;16.33;10.88;;;13.60;99.90;;;;;;5029742;28;20042;-56
2023/04/23 07:20:33;;;;;;;14.23;10.05;;;13.70;99.90;;;;;;5033241;28;20025;-55
2023/04/23 07:22:59;;;;;;;13.38;9.25;;;13.90;99.90;;;;;;5033910;28;20052;-55
2023/04/23 07:25:25;;;;;;;15.00;9.25;;;14.10;99.90;;;;;;5033797;28;20470;-56
2023/04/23 07:27:53;;;;;;;12.25;8.52;;;14.30;99.90;;;;;;5033585;28;20036;-58
2023/04/23 07:30:19;;;;;;;13.65;10.10;;;14.60;99.90;;;;;;5033745;28;20041;-56
2023/04/23 07:32:45;;;;;;;12.35;8.38;;;14.80;99.90;;;;;;5033769;28;20042;-57
2023/04/23 07:35:11;;;;;;;11.50;8.18;;;15.00;99.90;;;;;;5033800;28;20029;-56
2023/04/23 07:37:37;;;;;;;12.65;8.20;;;15.20;99.90;;;;;;5033259;28;20393;-57
2023/04/23 07:40:04;;;;;;;15.63;11.07;;;15.20;99.90;;;;;;5033685;28;20044;-56
2023/04/23 07:42:31;;;;;;;16.35;11.77;;;15.40;99.90;;;;;;5033641;28;20036;-57
2023/04/23 07:44:57;;;;;;;11.57;7.35;;;15.70;99.90;;;;;;5033454;28;20026;-58
2023/04/23 07:47:22;;;;;;;11.20;7.00;;;16.00;99.90;;;;;;5033142;28;20315;-57
2023/04/23 07:49:48;;;;;;;9.85;6.57;;;16.30;99.90;;;;;;5033409;28;20138;-58
2023/04/23 07:52:15;;;;;;;9.68;6.72;;;16.60;99.90;;;;;;5033231;28;20060;-57
2023/04/23 07:54:40;;;;;;;8.77;5.80;;;16.70;99.90;;;;;;5033143;28;20045;-57
2023/04/23 07:57:06;;;;;;;8.90;6.18;;;17.30;99.90;;;;;;5032997;28;20171;-58
2023/04/23 07:59:32;;;;;;;9.85;6.00;;;17.40;99.90;;;;;;5033203;28;20362;-57
2023/04/23 08:01:58;;;;;;;8.15;6.28;;;17.70;99.90;;;;;;5033117;28;20033;-56
2023/04/23 08:04:23;;;;;;;8.63;5.97;;;17.70;99.90;;;;;;5032941;28;20026;-57
2023/04/23 08:06:49;;;;;;;11.52;6.40;;;17.40;99.90;;;;;;5032762;28;20028;-56
2023/04/23 08:09:15;;;;;;;8.23;5.53;;;17.10;99.90;;;;;;5033023;28;20025;-56
2023/04/23 08:11:41;;;;;;;11.45;5.38;;;16.90;99.90;;;;;;5033030;28;20401;-57
2023/04/23 08:14:06;;;;;;;9.60;5.32;;;16.90;99.90;;;;;;5032702;28;20029;-55
2023/04/23 08:16:32;;;;;;;7.38;4.90;;;16.80;99.90;;;;;;5032443;28;20096;-57
2023/04/23 08:18:58;;;;;;;8.57;5.00;;;16.60;99.90;;;;;;5032717;28;20057;-56
2023/04/23 08:21:25;;;;;;;9.13;5.47;;;16.70;99.90;;;;;;5032854;28;20064;-56
2023/04/23 08:23:51;;;;;;;8.50;4.60;;;16.80;99.90;;;;;;5032569;28;20029;-55
2023/04/23 08:26:17;;;;;;;8.70;5.25;;;16.70;99.90;;;;;;5032680;28;20032;-56
2023/04/23 08:28:43;;;;;;;8.88;4.65;;;16.80;99.90;;;;;;5032568;28;20072;-56
2023/04/23 08:31:09;;;;;;;8.48;4.55;;;16.80;99.90;;;;;;5032249;28;20056;-56
2023/04/23 08:33:35;;;;;;;6.85;4.07;;;16.80;99.90;;;;;;5032431;28;20029;-57
2023/04/23 08:36:01;;;;;;;10.25;4.60;;;16.80;99.90;;;;;;5032571;28;20120;-57
2023/04/23 08:38:26;;;;;;;7.93;4.80;;;16.70;99.90;;;;;;5032064;28;20132;-55
2023/04/23 08:40:56;;;;;;;7.20;4.15;;;16.60;99.90;;;;;;5032704;28;20052;-54
2023/04/23 08:43:30;;;;;;;6.78;4.32;;;16.50;99.90;;;;;;5032420;28;20022;-57
2023/04/23 08:46:00;;;;;;;8.15;4.32;;;16.60;99.90;;;;;;5032488;28;20064;-55
2023/04/23 08:48:28;;;;;;;9.70;5.53;;;16.60;99.90;;;;;;5031950;28;20065;-54
2023/04/23 08:50:56;;;;;;;13.13;6.90;;;16.70;99.90;;;;;;5032252;28;20256;-56
2023/04/23 08:53:26;;;;;;;8.30;4.60;;;16.80;99.90;;;;;;5032087;28;20033;-54
2023/04/23 08:55:55;;;;;;;9.02;4.60;;;16.90;99.90;;;;;;5032256;28;20072;-54
2023/04/23 08:58:21;;;;;;;9.63;4.28;;;16.90;99.90;;;;;;5031745;28;20454;-56
2023/04/23 09:00:47;;;;;;;8.77;4.15;;;17.00;99.90;;;;;;5032057;28;20061;-57
2023/04/23 09:03:15;;;;;;;6.15;3.40;;;17.20;99.90;;;;;;5032084;28;20041;-56
2023/04/23 09:05:42;;;;;;;7.97;4.25;;;17.20;99.90;;;;;;5031876;28;20036;-55
2023/04/23 09:08:09;;;;;;;7.45;4.30;;;17.00;99.90;;;;;;5031870;28;20044;-56
2023/04/23 09:10:38;;;;;;;7.78;4.20;;;17.00;99.90;;;;;;5031825;28;20171;-56
2023/04/23 09:13:04;;;;;;;9.68;4.40;;;17.00;99.90;;;;;;5031984;28;20041;-56
2023/04/23 09:15:30;;;;;;;10.73;4.57;;;17.20;99.90;;;;;;5031667;28;20025;-56
2023/04/23 09:17:58;;;;;;;10.43;4.47;;;17.00;99.90;;;;;;5031576;28;20036;-54
2023/04/23 09:20:24;;;;;;;10.40;6.75;;;17.00;99.90;;;;;;5031765;28;20033;-56
2023/04/23 09:22:54;;;;;;;7.35;3.80;;;17.00;99.90;;;;;;5031724;28;20489;-57
2023/04/23 09:25:22;;;;;;;6.00;3.33;;;17.00;99.90;;;;;;5031438;28;20033;-54
2023/04/23 09:27:50;;;;;;;5.55;2.83;;;17.10;99.90;;;;;;5031411;28;20104;-57
2023/04/23 09:30:16;;;;;;;6.63;3.27;;;17.00;99.90;;;;;;5031717;28;20430;-56
2023/04/23 09:32:44;;;;;;;9.57;4.15;;;17.10;99.90;;;;;;5031630;28;20052;-56
2023/04/23 09:35:15;;;;;;;8.65;3.45;;;17.20;99.90;;;;;;5031512;28;20116;-57
2023/04/23 09:37:42;;;;;;;6.68;3.03;;;17.20;99.90;;;;;;5030924;28;20057;-54
2023/04/23 09:40:12;;;;;;;7.70;3.17;;;17.30;99.90;;;;;;5031380;28;20041;-57
2023/04/23 09:42:38;;;;;;;6.50;3.03;;;17.20;99.90;;;;;;5030935;28;20021;-55
2023/04/23 09:45:10;;;;;;;7.88;2.95;;;17.40;99.90;;;;;;5031396;28;20044;-55
2023/04/23 09:47:47;;;;;;;5.90;2.50;;;17.50;99.90;;;;;;5030922;28;20088;-54
2023/04/23 09:50:13;;;;;;;7.00;2.45;;;17.80;99.90;;;;;;5031094;28;20398;-55
2023/04/23 09:52:39;;;;;;;11.10;4.25;;;17.90;99.90;;;;;;5013430;28;20037;-54
2023/04/23 09:55:06;;;;;;;7.22;3.10;;;18.30;99.90;;;;;;5031130;28;20036;-57
2023/04/23 09:57:43;;;;;;;8.07;3.10;;;18.80;99.90;;;;;;5030930;28;20038;-57
2023/04/23 10:00:15;;;;;;;5.82;3.22;;;18.80;99.90;;;;;;5031043;28;20029;-56
2023/04/23 10:02:47;;;;;;;9.93;3.63;;;19.40;99.90;;;;;;5030946;28;20476;-56
2023/04/23 10:05:17;;;;;;;6.70;2.22;;;19.50;99.10;;;;;;5030654;28;20095;-57
2023/04/23 10:07:50;;;;;;;9.30;2.35;;;19.20;98.80;;;;;;5030646;28;20041;-57
2023/04/23 10:10:17;;;;;;;8.10;2.33;;;19.10;99.90;;;;;;5030845;28;20037;-56
2023/04/23 10:12:44;;;;;;;4.45;2.50;;;19.00;99.80;;;;;;5030971;28;20033;-57
2023/04/23 10:15:10;;;;;;;6.25;2.83;;;18.90;99.90;;;;;;5030676;28;20033;-56
2023/04/23 10:17:37;;;;;;;6.22;2.83;;;18.70;99.90;;;;;;5030370;28;20044;-56
2023/04/23 10:20:04;;;;;;;5.43;2.75;;;18.70;99.90;;;;;;5030892;28;20108;-57
2023/04/23 10:22:32;;;;;;;8.35;2.40;;;18.70;99.80;;;;;;5030762;28;20545;-56
2023/04/23 10:25:02;;;;;;;8.00;3.13;;;18.70;99.90;;;;;;5030919;28;20033;-57
2023/04/23 10:27:30;;;;;;;8.85;2.25;;;19.00;99.90;;;;;;5030389;28;20040;-57
2023/04/23 10:30:00;;;;;;;5.95;2.42;;;19.10;99.90;;;;;;5012860;28;20065;-56
2023/04/23 10:32:26;;;;;;;7.85;2.92;;;19.10;98.90;;;;;;5030766;28;20398;-56
2023/04/23 10:34:53;;;;;;;5.88;2.97;;;19.20;99.50;;;;;;5030548;28;20399;-56
2023/04/23 10:37:19;;;;;;;6.50;2.70;;;19.70;98.80;;;;;;5030212;28;20125;-56
2023/04/23 10:39:49;;;;;;;5.32;2.38;;;20.50;97.60;;;;;;5030519;28;20163;-58
2023/04/23 10:42:16;;;;;;;6.47;2.38;;;20.80;97.30;;;;;;5030478;28;20022;-58
2023/04/23 10:44:42;;;;;;;3.90;2.13;;;20.80;95.90;;;;;;5030177;28;20413;-58
2023/04/23 10:47:15;;;;;;;9.48;2.45;;;21.00;95.90;;;;;;5030265;28;20061;-58
2023/04/23 10:49:42;;;;;;;5.70;3.08;;;20.80;95.20;;;;;;5030366;28;20109;-58
2023/04/23 10:52:09;;;;;;;6.53;1.95;;;20.70;95.10;;;;;;5030504;28;20401;-58
2023/04/23 10:54:35;;;;;;;4.60;2.15;;;20.30;96.30;;;;;;5033636;28;20429;-58
2023/04/23 10:57:04;;;;;;;5.97;2.80;;;20.10;95.80;;;;;;5034059;28;20034;-57
2023/04/23 10:59:31;;;;;;;4.57;2.17;;;20.30;96.10;;;;;;5034403;28;20092;-58
2023/04/23 11:02:00;;;;;;;6.97;2.50;;;20.40;95.20;;;;;;5034298;28;20037;-58
2023/04/23 11:04:28;;;;;;;6.75;2.25;;;20.50;94.60;;;;;;5034293;28;20032;-57
2023/04/23 11:07:09;;;;;;;6.13;1.70;;;20.20;95.80;;;;;;5034039;28;20474;-58
2023/04/23 11:09:43;;;;;;;5.53;1.92;;;20.10;96.50;;;;;;5034158;28;20046;-57
2023/04/23 11:12:23;;;;;;;4.38;2.20;;;20.30;95.90;;;;;;5034283;28;20037;-58
2023/04/23 11:14:50;;;;;;;5.15;2.03;;;20.30;95.80;;;;;;5033873;28;20490;-58
2023/04/23 11:17:23;;;;;;;4.50;1.70;;;20.30;96.40;;;;;;5033848;28;20036;-56
2023/04/23 11:20:12;;;;;;;5.03;2.00;;;20.00;95.50;;;;;;5033915;28;20429;-57
2023/04/23 11:22:44;;;;;;;6.03;2.72;;;20.00;96.30;;;;;;5034037;28;20087;-56
2023/04/23 11:25:18;;;;;;;4.85;1.92;;;20.00;96.30;;;;;;5033791;28;20462;-57
2023/04/23 11:27:46;;;;;;;6.85;1.90;;;19.60;96.30;;;;;;5015940;28;20484;-57
2023/04/23 11:30:17;;;;;;;7.25;2.83;;;19.50;95.90;;;;;;5033902;28;20038;-56
2023/04/23 11:32:51;;;;;;;3.60;1.63;;;19.40;96.40;;;;;;5033951;28;20042;-58
2023/04/23 11:35:19;;;;;;;6.00;1.50;;;19.20;95.80;;;;;;5033634;28;20083;-55
2023/04/23 11:37:47;;;;;;;5.63;1.48;;;19.00;96.50;;;;;;5033313;28;20469;-57
2023/04/23 11:40:18;;;;;;;8.13;2.72;;;18.80;97.00;;;;;;5033635;28;20034;-55
2023/04/23 11:42:56;;;;;;;8.77;2.75;;;18.90;97.20;;;;;;5033504;28;20079;-55
2023/04/23 11:45:23;;;;;;;2.97;1.20;;;18.90;95.40;;;;;;5033457;28;20026;-57
2023/04/23 11:47:57;;;;;;;6.55;1.70;;;19.10;95.50;;;;;;5033228;28;20025;-56
2023/04/23 11:50:31;;;;;;;4.90;1.60;;;19.10;94.90;;;;;;5033582;28;20324;-56
2023/04/23 11:53:03;;;;;;;5.65;1.65;;;19.10;94.40;;;;;;5033539;28;20464;-55
2023/04/23 11:55:29;;;;;;;4.22;1.52;;;19.10;95.00;;;;;;5033825;28;20033;-56
2023/04/23 11:57:56;;;;;;;4.57;1.48;;;19.20;94.90;;;;;;5033169;28;20396;-58
2023/04/23 12:00:25;;;;;;;7.60;2.55;;;19.50;95.20;;;;;;5033207;28;20462;-56
2023/04/23 12:02:56;;;;;;;5.00;1.35;;;19.60;94.80;;;;;;5033307;28;20036;-56
2023/04/23 12:05:34;;;;;;;6.03;1.92;;;19.70;93.80;;;;;;5032288;28;20087;-57
2023/04/23 12:08:16;;;;;;;5.07;1.60;;;19.80;93.20;;;;;;5033132;28;20365;-56
2023/04/23 12:10:46;;;;;;;4.15;1.10;;;19.90;92.40;;;;;;5033295;28;20401;-56
2023/04/23 12:13:15;;;;;;;2.30;1.05;;;19.70;91.60;;;;;;5033087;28;20064;-56
2023/04/23 12:16:01;;;;;;;5.63;1.13;;;19.70;91.10;;;;;;5032911;28;20454;-55
2023/04/23 12:18:36;;;;;;;4.75;1.10;;;19.30;91.60;;;;;;5032602;28;20405;-53
2023/04/23 12:21:10;;;;;;;4.13;1.20;;;19.30;93.30;;;;;;5033092;28;20391;-55
2023/04/23 12:23:37;;;;;;;5.80;1.42;;;19.10;92.00;;;;;;5032797;28;20025;-56
2023/04/23 12:26:03;;;;;;;3.03;1.08;;;19.00;92.30;;;;;;5032929;28;20108;-56
2023/04/23 12:28:29;;;;;;;3.25;1.20;;;19.00;91.40;;;;;;5032865;28;20092;-56
2023/04/23 12:31:00;;;;;;;3.90;1.30;;;19.00;92.10;;;;;;5032758;28;20043;-56
2023/04/23 12:33:29;;;;;;;5.25;1.10;;;19.10;92.00;;;;;;5032549;28;20033;-58
2023/04/23 12:35:56;;;;;;;4.32;1.13;;;19.20;92.60;;;;;;5032840;28;20098;-58
2023/04/23 12:38:26;;;;;;;4.50;1.17;;;19.50;91.90;;;;;;5032341;28;20057;-58
2023/04/23 12:40:53;;;;;;;2.70;0.90;;;19.80;92.60;;;;;;5032679;28;20025;-58